createdAt,value
2018-08-19T00:00:32.484Z,1.90
2018-08-19T00:01:32.543Z,1.90
2018-08-19T00:02:32.602Z,2.00
2018-08-19T00:03:32.662Z,2.00
2018-08-19T00:04:32.721Z,2.10
2018-08-19T00:05:32.781Z,2.10
2018-08-19T00:06:32.843Z,2.10
2018-08-19T00:07:32.902Z,2.20
2018-08-19T00:08:32.959Z,2.20
2018-08-19T00:09:33.019Z,1.90
2018-08-19T00:10:33.078Z,1.90
2018-08-19T00:11:33.138Z,2.00
2018-08-19T00:12:33.205Z,2.00
2018-08-19T00:13:33.257Z,2.10
2018-08-19T00:14:33.315Z,1.80
2018-08-19T00:15:33.374Z,2.20
2018-08-19T00:16:33.436Z,1.80
2018-08-19T00:17:33.495Z,2.00
2018-08-19T00:18:33.552Z,1.90
2018-08-19T00:19:33.612Z,2.30
2018-08-19T00:20:33.674Z,2.00
2018-08-19T00:21:33.731Z,2.00
2018-08-19T00:22:33.791Z,1.60
2018-08-19T00:23:33.850Z,1.80
2018-08-19T00:24:33.909Z,1.80
2018-08-19T00:25:33.970Z,1.90
2018-08-19T00:26:34.027Z,2.10
2018-08-19T00:27:34.088Z,1.90
2018-08-19T00:28:34.147Z,1.60
2018-08-19T00:29:34.207Z,2.00
2018-08-19T00:30:34.264Z,1.90
2018-08-19T00:31:34.324Z,1.80
2018-08-19T00:32:34.384Z,2.10
2018-08-19T00:33:34.444Z,1.90
2018-08-19T00:34:34.503Z,2.10
2018-08-19T00:35:34.567Z,2.10
2018-08-19T00:36:34.622Z,2.20
2018-08-19T00:37:34.683Z,1.90
2018-08-19T00:38:34.739Z,2.00
2018-08-19T00:39:34.800Z,2.00
2018-08-19T00:40:34.858Z,2.00
2018-08-19T00:41:34.918Z,2.10
2018-08-19T00:42:34.977Z,2.20
2018-08-19T00:43:35.036Z,2.00
2018-08-19T00:44:35.101Z,1.90
2018-08-19T00:45:35.154Z,2.00
2018-08-19T00:46:35.215Z,1.80
2018-08-19T00:47:35.273Z,2.10
2018-08-19T00:48:35.583Z,2.20
2018-08-19T00:49:35.395Z,2.00
2018-08-19T00:50:35.450Z,2.30
2018-08-19T00:51:35.514Z,2.20
2018-08-19T00:52:35.571Z,2.10
2018-08-19T00:53:35.630Z,2.10
2018-08-19T00:54:35.687Z,1.90
2018-08-19T00:55:35.746Z,1.90
2018-08-19T00:56:35.806Z,2.00
2018-08-19T00:57:35.866Z,2.00
2018-08-19T00:58:35.925Z,2.10
2018-08-19T00:59:35.983Z,1.90
2018-08-19T01:00:36.043Z,2.20
2018-08-19T01:01:36.102Z,1.90
2018-08-19T01:02:36.161Z,2.00
2018-08-19T01:03:36.220Z,1.90
2018-08-19T01:04:36.281Z,2.00
2018-08-19T01:05:36.338Z,2.10
2018-08-19T01:06:36.398Z,2.10
2018-08-19T01:07:36.458Z,2.10
2018-08-19T01:08:36.767Z,1.70
2018-08-19T01:09:36.576Z,2.20
2018-08-19T01:10:36.633Z,2.10
2018-08-19T01:11:36.693Z,2.10
2018-08-19T01:12:36.753Z,2.00
2018-08-19T01:13:36.811Z,2.40
2018-08-19T01:14:36.870Z,2.10
2018-08-19T01:15:36.930Z,1.90
2018-08-19T01:16:36.990Z,2.10
2018-08-19T01:17:37.048Z,1.90
2018-08-19T01:18:37.106Z,2.10
2018-08-19T01:19:37.165Z,2.20
2018-08-19T01:20:37.227Z,2.10
2018-08-19T01:21:37.291Z,2.00
2018-08-19T01:22:37.344Z,2.00
2018-08-19T01:23:37.422Z,2.00
2018-08-19T01:24:37.461Z,2.10
2018-08-19T01:25:37.521Z,2.10
2018-08-19T01:26:37.578Z,1.80
2018-08-19T01:27:37.638Z,2.00
2018-08-19T01:28:37.699Z,2.40
2018-08-19T01:29:37.764Z,2.00
2018-08-19T01:30:37.815Z,2.30
2018-08-19T01:31:37.873Z,2.10
2018-08-19T01:32:37.934Z,2.10
2018-08-19T01:33:37.992Z,1.80
2018-08-19T01:34:38.052Z,2.00
2018-08-19T01:35:38.109Z,2.10
2018-08-19T01:36:38.169Z,1.80
2018-08-19T01:37:38.228Z,2.10
2018-08-19T01:38:38.286Z,2.10
2018-08-19T01:39:38.345Z,1.90
2018-08-19T01:40:38.404Z,2.10
2018-08-19T01:41:38.466Z,2.10
2018-08-19T01:42:38.522Z,2.20
2018-08-19T01:43:38.581Z,2.00
2018-08-19T01:44:38.891Z,2.00
2018-08-19T01:45:38.699Z,1.90
2018-08-19T01:46:38.757Z,2.00
2018-08-19T01:47:38.816Z,1.80
2018-08-19T01:48:38.875Z,1.90
2018-08-19T01:49:38.934Z,2.10
2018-08-19T01:50:38.991Z,2.00
2018-08-19T01:51:39.054Z,2.10
2018-08-19T01:52:39.111Z,2.20
2018-08-19T01:53:39.170Z,2.30
2018-08-19T01:54:39.228Z,1.80
2018-08-19T01:55:39.288Z,2.00
2018-08-19T01:56:39.346Z,2.00
2018-08-19T01:57:39.407Z,2.20
2018-08-19T01:58:39.467Z,2.00
2018-08-19T01:59:39.525Z,2.40
2018-08-19T02:00:39.582Z,2.00
2018-08-19T02:01:39.640Z,2.10
2018-08-19T02:02:39.698Z,2.00
2018-08-19T02:03:39.757Z,1.90
2018-08-19T02:04:39.816Z,1.90
2018-08-19T02:05:39.875Z,2.00
2018-08-19T02:06:39.933Z,1.90
2018-08-19T02:07:39.992Z,2.20
2018-08-19T02:08:40.050Z,2.30
2018-08-19T02:09:40.110Z,2.00
2018-08-19T02:10:40.168Z,2.20
2018-08-19T02:11:40.227Z,2.30
2018-08-19T02:12:40.286Z,2.00
2018-08-19T02:13:40.349Z,2.10
2018-08-19T02:14:40.406Z,1.90
2018-08-19T02:15:40.462Z,2.20
2018-08-19T02:16:40.520Z,2.10
2018-08-19T02:17:40.580Z,2.30
2018-08-19T02:18:40.637Z,2.20
2018-08-19T02:19:40.696Z,2.10
2018-08-19T02:20:40.807Z,2.00
2018-08-19T02:21:40.821Z,2.00
2018-08-19T02:22:40.872Z,2.30
2018-08-19T02:23:40.931Z,2.20
2018-08-19T02:24:41.010Z,2.00
2018-08-19T02:25:41.048Z,2.20
2018-08-19T02:26:41.107Z,2.00
2018-08-19T02:27:41.166Z,2.10
2018-08-19T02:28:41.224Z,2.40
2018-08-19T02:29:41.285Z,2.10
2018-08-19T02:30:41.341Z,1.80
2018-08-19T02:31:41.417Z,2.10
2018-08-19T02:32:41.459Z,1.90
2018-08-19T02:33:41.517Z,2.20
2018-08-19T02:34:41.575Z,2.40
2018-08-19T02:35:41.635Z,2.60
2018-08-19T02:36:41.693Z,2.10
2018-08-19T02:37:41.751Z,2.40
2018-08-19T02:38:41.809Z,2.40
2018-08-19T02:39:42.118Z,2.30
2018-08-19T02:40:41.926Z,2.10
2018-08-19T02:41:41.985Z,2.20
2018-08-19T02:42:42.043Z,2.20
2018-08-19T02:43:42.103Z,2.30
2018-08-19T02:44:42.160Z,2.30
2018-08-19T02:45:42.218Z,2.30
2018-08-19T02:46:42.278Z,2.40
2018-08-19T02:47:42.337Z,2.30
2018-08-19T02:48:42.395Z,2.20
2018-08-19T02:49:42.453Z,2.10
2018-08-19T02:50:42.512Z,2.00
2018-08-19T02:51:42.569Z,2.70
2018-08-19T02:52:42.627Z,2.20
2018-08-19T02:53:42.688Z,2.20
2018-08-19T02:54:42.744Z,2.20
2018-08-19T02:55:42.803Z,2.30
2018-08-19T02:56:42.866Z,2.20
2018-08-19T02:57:42.920Z,2.30
2018-08-19T02:58:42.979Z,2.00
2018-08-19T02:59:43.038Z,2.10
2018-08-19T03:00:43.095Z,2.40
2018-08-19T03:01:43.153Z,2.30
2018-08-19T03:02:43.211Z,2.10
2018-08-19T03:03:43.270Z,2.10
2018-08-19T03:04:43.329Z,2.20
2018-08-19T03:05:43.388Z,2.40
2018-08-19T03:06:43.445Z,2.50
2018-08-19T03:07:43.502Z,2.50
2018-08-19T03:08:43.562Z,2.40
2018-08-19T03:09:43.620Z,2.50
2018-08-19T03:10:43.677Z,2.80
2018-08-19T03:11:43.736Z,2.20
2018-08-19T03:12:43.796Z,2.20
2018-08-19T03:13:43.853Z,2.50
2018-08-19T03:14:43.909Z,2.30
2018-08-19T03:15:43.969Z,2.30
2018-08-19T03:16:44.028Z,2.30
2018-08-19T03:17:44.089Z,2.80
2018-08-19T03:18:44.144Z,2.40
2018-08-19T03:19:44.203Z,2.30
2018-08-19T03:20:44.261Z,2.40
2018-08-19T03:21:44.320Z,2.60
2018-08-19T03:22:44.377Z,2.20
2018-08-19T03:23:44.438Z,2.40
2018-08-19T03:24:44.496Z,2.50
2018-08-19T03:25:44.552Z,2.30
2018-08-19T03:26:44.609Z,2.50
2018-08-19T03:27:44.671Z,2.20
2018-08-19T03:28:44.730Z,2.70
2018-08-19T03:29:44.786Z,2.70
2018-08-19T03:30:44.844Z,2.60
2018-08-19T03:31:44.903Z,2.70
2018-08-19T03:32:44.961Z,2.60
2018-08-19T03:33:45.020Z,2.80
2018-08-19T03:34:45.077Z,2.80
2018-08-19T03:35:45.137Z,2.60
2018-08-19T03:36:45.198Z,2.50
2018-08-19T03:37:45.254Z,2.70
2018-08-19T03:38:45.310Z,2.60
2018-08-19T03:39:45.369Z,2.50
2018-08-19T03:40:45.427Z,2.30
2018-08-19T03:41:45.487Z,2.60
2018-08-19T03:42:45.548Z,2.10
2018-08-19T03:43:45.601Z,2.90
2018-08-19T03:44:45.661Z,2.50
2018-08-19T03:45:45.724Z,2.70
2018-08-19T03:46:45.776Z,2.70
2018-08-19T03:47:45.834Z,2.80
2018-08-19T03:48:45.893Z,2.50
2018-08-19T03:49:45.951Z,2.70
2018-08-19T03:50:46.009Z,2.80
2018-08-19T03:51:46.096Z,2.60
2018-08-19T03:52:46.143Z,2.70
2018-08-19T03:53:46.184Z,2.40
2018-08-19T03:54:46.268Z,3.10
2018-08-19T03:55:46.304Z,2.60
2018-08-19T03:56:46.381Z,2.70
2018-08-19T03:57:46.417Z,2.60
2018-08-19T03:58:46.494Z,2.40
2018-08-19T03:59:46.542Z,2.60
2018-08-19T04:00:46.608Z,2.60
2018-08-19T04:01:46.650Z,2.80
2018-08-19T04:02:46.708Z,2.60
2018-08-19T04:03:46.767Z,2.70
2018-08-19T04:04:46.825Z,2.40
2018-08-19T04:05:46.885Z,2.80
2018-08-19T04:06:46.941Z,2.40
2018-08-19T04:07:46.998Z,2.30
2018-08-19T04:08:47.057Z,2.50
2018-08-19T04:09:47.167Z,2.60
2018-08-19T04:10:47.173Z,2.50
2018-08-19T04:11:47.232Z,2.60
2018-08-19T04:12:47.290Z,2.80
2018-08-19T04:13:47.348Z,2.80
2018-08-19T04:14:47.407Z,2.90
2018-08-19T04:15:47.464Z,2.90
2018-08-19T04:16:47.523Z,2.90
2018-08-19T04:17:47.581Z,2.70
2018-08-19T04:18:47.639Z,2.80
2018-08-19T04:19:47.696Z,2.80
2018-08-19T04:20:47.755Z,2.80
2018-08-19T04:21:47.814Z,2.70
2018-08-19T04:22:47.871Z,2.90
2018-08-19T04:23:47.945Z,3.00
2018-08-19T04:24:47.988Z,3.10
2018-08-19T04:25:48.046Z,2.90
2018-08-19T04:26:48.103Z,2.80
2018-08-19T04:27:48.161Z,2.60
2018-08-19T04:28:48.223Z,2.60
2018-08-19T04:29:48.279Z,2.60
2018-08-19T04:30:48.337Z,2.70
2018-08-19T04:31:48.397Z,2.60
2018-08-19T04:32:48.452Z,3.10
2018-08-19T04:33:48.511Z,3.10
2018-08-19T04:34:48.604Z,2.80
2018-08-19T04:35:48.627Z,2.70
2018-08-19T04:36:48.836Z,2.70
2018-08-19T04:37:48.744Z,2.90
2018-08-19T04:38:48.802Z,3.10
2018-08-19T04:39:48.859Z,3.00
2018-08-19T04:40:48.918Z,3.00
2018-08-19T04:41:48.976Z,2.80
2018-08-19T04:42:49.032Z,2.80
2018-08-19T04:43:49.091Z,2.70
2018-08-19T04:44:49.151Z,2.90
2018-08-19T04:45:49.208Z,2.70
2018-08-19T04:46:49.268Z,3.00
2018-08-19T04:47:49.324Z,2.80
2018-08-19T04:48:49.396Z,2.80
2018-08-19T04:49:49.442Z,2.90
2018-08-19T04:50:49.498Z,2.90
2018-08-19T04:51:49.556Z,2.70
2018-08-19T04:52:49.614Z,2.70
2018-08-19T04:53:49.673Z,2.80
2018-08-19T04:54:49.730Z,2.80
2018-08-19T04:55:49.789Z,3.10
2018-08-19T04:56:49.855Z,3.20
2018-08-19T04:57:49.910Z,2.90
2018-08-19T04:58:49.965Z,3.30
2018-08-19T04:59:50.021Z,3.20
2018-08-19T05:00:50.082Z,2.90
2018-08-19T05:01:50.138Z,3.20
2018-08-19T05:02:50.448Z,3.00
2018-08-19T05:03:50.255Z,2.80
2018-08-19T05:04:50.312Z,3.20
2018-08-19T05:05:50.371Z,2.90
2018-08-19T05:06:50.428Z,2.80
2018-08-19T05:07:50.539Z,2.90
2018-08-19T05:08:50.545Z,2.60
2018-08-19T05:09:50.605Z,3.10
2018-08-19T05:10:50.662Z,2.80
2018-08-19T05:11:50.742Z,2.70
2018-08-19T05:12:50.782Z,2.60
2018-08-19T05:13:50.837Z,2.80
2018-08-19T05:14:50.894Z,2.80
2018-08-19T05:15:50.953Z,3.00
2018-08-19T05:16:51.011Z,3.20
2018-08-19T05:17:51.069Z,3.20
2018-08-19T05:18:51.127Z,3.20
2018-08-19T05:19:51.185Z,3.00
2018-08-19T05:20:51.245Z,3.20
2018-08-19T05:21:51.313Z,3.60
2018-08-19T05:22:51.610Z,3.30
2018-08-19T05:23:51.418Z,2.90
2018-08-19T05:24:51.476Z,3.30
2018-08-19T05:25:51.537Z,2.90
2018-08-19T05:26:51.592Z,3.10
2018-08-19T05:27:51.653Z,2.80
2018-08-19T05:28:51.710Z,3.10
2018-08-19T05:29:51.768Z,3.20
2018-08-19T05:30:51.840Z,3.20
2018-08-19T05:31:51.885Z,2.90
2018-08-19T05:32:51.943Z,3.30
2018-08-19T05:33:52.001Z,3.10
2018-08-19T05:34:52.102Z,3.70
2018-08-19T05:35:52.117Z,2.80
2018-08-19T05:36:52.177Z,3.10
2018-08-19T05:37:52.245Z,3.10
2018-08-19T05:38:52.291Z,3.10
2018-08-19T05:39:52.351Z,2.70
2018-08-19T05:40:52.408Z,3.10
2018-08-19T05:41:52.467Z,3.10
2018-08-19T05:42:52.524Z,3.20
2018-08-19T05:43:52.587Z,3.50
2018-08-19T05:44:52.642Z,3.40
2018-08-19T05:45:52.702Z,3.20
2018-08-19T05:46:52.761Z,3.20
2018-08-19T05:47:52.817Z,3.40
2018-08-19T05:48:52.875Z,3.30
2018-08-19T05:49:52.933Z,3.20
2018-08-19T05:50:52.992Z,3.30
2018-08-19T05:51:53.050Z,2.90
2018-08-19T05:52:53.109Z,3.50
2018-08-19T05:53:53.202Z,3.10
2018-08-19T05:54:53.227Z,3.20
2018-08-19T05:55:53.285Z,3.10
2018-08-19T05:56:53.343Z,3.30
2018-08-19T05:57:53.401Z,3.10
2018-08-19T05:58:53.459Z,2.90
2018-08-19T05:59:53.517Z,3.20
2018-08-19T06:00:53.576Z,2.90
2018-08-19T06:01:53.635Z,3.20
2018-08-19T06:02:53.693Z,2.80
2018-08-19T06:03:53.753Z,3.00
2018-08-19T06:04:53.811Z,3.10
2018-08-19T06:05:53.873Z,3.10
2018-08-19T06:06:53.928Z,2.80
2018-08-19T06:07:53.987Z,3.00
2018-08-19T06:08:54.045Z,2.90
2018-08-19T06:09:54.103Z,2.90
2018-08-19T06:10:54.160Z,3.40
2018-08-19T06:11:54.220Z,3.20
2018-08-19T06:12:54.280Z,2.90
2018-08-19T06:13:54.339Z,3.10
2018-08-19T06:14:54.397Z,3.00
2018-08-19T06:15:54.514Z,3.00
2018-08-19T06:16:54.516Z,3.10
2018-08-19T06:17:54.576Z,3.00
2018-08-19T06:18:54.633Z,3.30
2018-08-19T06:19:54.695Z,3.40
2018-08-19T06:20:54.751Z,3.10
2018-08-19T06:21:54.859Z,3.10
2018-08-19T06:22:54.869Z,3.20
2018-08-19T06:23:54.943Z,3.60
2018-08-19T06:24:54.987Z,3.00
2018-08-19T06:25:55.047Z,3.10
2018-08-19T06:26:55.109Z,3.20
2018-08-19T06:27:55.164Z,3.30
2018-08-19T06:28:55.479Z,2.70
2018-08-19T06:29:55.283Z,3.00
2018-08-19T06:30:55.383Z,2.80
2018-08-19T06:31:55.401Z,3.30
2018-08-19T06:32:55.460Z,3.20
2018-08-19T06:33:55.521Z,3.10
2018-08-19T06:34:55.700Z,2.60
2018-08-19T06:35:55.638Z,3.20
2018-08-19T06:36:55.696Z,3.00
2018-08-19T06:37:55.756Z,3.10
2018-08-19T06:38:55.814Z,3.20
2018-08-19T06:39:55.875Z,2.60
2018-08-19T06:40:55.936Z,2.90
2018-08-19T06:41:55.993Z,3.20
2018-08-19T06:42:56.054Z,3.30
2018-08-19T06:43:56.116Z,3.10
2018-08-19T06:44:56.173Z,3.30
2018-08-19T06:45:56.232Z,2.80
2018-08-19T06:46:56.292Z,3.00
2018-08-19T06:47:56.351Z,3.00
2018-08-19T06:48:56.562Z,3.10
2018-08-19T06:49:56.470Z,2.80
2018-08-19T06:50:56.552Z,3.00
2018-08-19T06:51:56.605Z,2.90
2018-08-19T06:52:56.657Z,3.00
2018-08-19T06:53:56.710Z,3.10
2018-08-19T06:54:56.774Z,3.10
2018-08-19T06:55:56.828Z,3.10
2018-08-19T06:56:56.888Z,3.40
2018-08-19T06:57:56.950Z,2.90
2018-08-19T06:58:57.026Z,3.10
2018-08-19T06:59:57.066Z,3.40
2018-08-19T07:00:57.129Z,2.80
2018-08-19T07:01:57.186Z,3.20
2018-08-19T07:02:57.245Z,3.20
2018-08-19T07:03:57.321Z,3.10
2018-08-19T07:04:57.366Z,2.90
2018-08-19T07:05:57.426Z,3.10
2018-08-19T07:06:57.485Z,3.30
2018-08-19T07:07:57.544Z,3.10
2018-08-19T07:08:57.605Z,3.40
2018-08-19T07:09:57.664Z,3.30
2018-08-19T07:10:57.724Z,2.80
2018-08-19T07:11:57.785Z,2.80
2018-08-19T07:12:57.845Z,3.20
2018-08-19T07:13:57.905Z,2.80
2018-08-19T07:14:57.964Z,3.30
2018-08-19T07:15:58.024Z,2.70
2018-08-19T07:16:58.085Z,3.00
2018-08-19T07:17:58.191Z,2.60
2018-08-19T07:18:58.205Z,3.20
2018-08-19T07:19:58.273Z,2.90
2018-08-19T07:20:58.324Z,2.80
2018-08-19T07:21:58.384Z,2.80
2018-08-19T07:22:58.445Z,2.80
2018-08-19T07:23:58.506Z,2.70
2018-08-19T07:24:58.566Z,2.60
2018-08-19T07:25:58.626Z,2.80
2018-08-19T07:26:58.685Z,3.00
2018-08-19T07:27:58.751Z,2.80
2018-08-19T07:28:58.810Z,3.00
2018-08-19T07:29:58.869Z,2.90
2018-08-19T07:30:58.928Z,2.80
2018-08-19T07:31:58.988Z,2.70
2018-08-19T07:32:59.048Z,2.80
2018-08-19T07:33:59.109Z,2.90
2018-08-19T07:34:59.171Z,2.90
2018-08-19T07:35:59.229Z,2.80
2018-08-19T07:36:59.409Z,2.80
2018-08-19T07:37:59.351Z,2.70
2018-08-19T07:38:59.411Z,2.80
2018-08-19T07:39:59.471Z,2.60
2018-08-19T07:40:59.533Z,3.00
2018-08-19T07:42:00.207Z,2.60
2018-08-19T07:42:59.654Z,2.60
2018-08-19T07:43:59.798Z,2.80
2018-08-19T07:44:59.774Z,2.90
2018-08-19T07:45:59.835Z,2.80
2018-08-19T07:46:59.896Z,2.80
2018-08-19T07:47:59.962Z,2.60
2018-08-19T07:49:00.018Z,3.10
2018-08-19T07:50:00.082Z,2.60
2018-08-19T07:51:00.139Z,2.90
2018-08-19T07:52:00.241Z,2.80
2018-08-19T07:53:00.263Z,2.80
2018-08-19T07:54:00.322Z,2.80
2018-08-19T07:55:00.382Z,2.60
2018-08-19T07:56:00.444Z,2.80
2018-08-19T07:57:00.504Z,2.40
2018-08-19T07:58:00.565Z,2.90
2018-08-19T07:59:53.093Z,2.60
2018-08-19T08:00:53.154Z,2.80
2018-08-19T08:01:53.215Z,2.90
2018-08-19T08:02:53.277Z,2.50
2018-08-19T08:03:53.348Z,2.80
2018-08-19T08:04:53.398Z,2.70
2018-08-19T08:05:53.460Z,2.60
2018-08-19T08:06:53.521Z,3.20
2018-08-19T08:07:53.588Z,2.90
2018-08-19T08:08:53.643Z,2.90
2018-08-19T08:09:53.705Z,3.10
2018-08-19T08:10:53.769Z,2.80
2018-08-19T08:11:53.828Z,2.60
2018-08-19T08:12:53.888Z,3.10
2018-08-19T08:13:54.047Z,3.00
2018-08-19T08:14:54.012Z,2.70
2018-08-19T08:15:54.074Z,2.90
2018-08-19T08:16:54.549Z,2.90
2018-08-19T08:17:54.247Z,3.10
2018-08-19T08:18:54.259Z,2.90
2018-08-19T08:19:54.320Z,2.60
2018-08-19T08:20:54.380Z,2.80
2018-08-19T08:21:54.467Z,3.00
2018-08-19T08:22:54.504Z,2.70
2018-08-19T08:23:54.566Z,2.80
2018-08-19T08:24:54.632Z,2.80
2018-08-19T08:25:54.690Z,3.20
2018-08-19T08:26:54.753Z,2.80
2018-08-19T08:27:54.814Z,3.40
2018-08-19T08:28:54.875Z,2.90
2018-08-19T08:29:54.938Z,2.90
2018-08-19T08:30:55.012Z,2.90
2018-08-19T08:31:55.066Z,2.80
2018-08-19T08:32:55.123Z,3.00
2018-08-19T08:33:55.184Z,3.00
2018-08-19T08:34:55.247Z,2.80
2018-08-19T08:35:55.311Z,3.20
2018-08-19T08:36:55.372Z,3.50
2018-08-19T08:37:55.433Z,3.30
2018-08-19T08:38:55.497Z,3.10
2018-08-19T08:39:55.558Z,3.40
2018-08-19T08:40:55.621Z,3.30
2018-08-19T08:41:55.683Z,3.20
2018-08-19T08:42:55.745Z,3.40
2018-08-19T08:43:55.808Z,3.50
2018-08-19T08:44:55.870Z,3.30
2018-08-19T08:45:55.933Z,3.60
2018-08-19T08:46:56.003Z,3.40
2018-08-19T08:47:56.096Z,3.60
2018-08-19T08:48:56.120Z,3.30
2018-08-19T08:49:56.183Z,3.80
2018-08-19T08:50:56.249Z,3.70
2018-08-19T08:51:56.308Z,3.70
2018-08-19T08:52:56.371Z,3.70
2018-08-19T08:53:56.434Z,3.80
2018-08-19T08:54:56.497Z,3.50
2018-08-19T08:55:56.560Z,3.80
2018-08-19T08:56:56.622Z,3.00
2018-08-19T08:57:56.685Z,3.50
2018-08-19T08:58:56.748Z,3.50
2018-08-19T08:59:56.811Z,3.60
2018-08-19T09:00:56.873Z,3.70
2018-08-19T09:01:56.938Z,3.50
2018-08-19T09:02:57.001Z,3.00
2018-08-19T09:03:57.062Z,3.10
2018-08-19T09:04:57.126Z,3.40
2018-08-19T09:05:57.191Z,3.20
2018-08-19T09:06:57.253Z,3.10
2018-08-19T09:07:57.315Z,2.90
2018-08-19T09:08:57.379Z,3.00
2018-08-19T09:09:57.442Z,2.70
2018-08-19T09:10:57.508Z,2.80
2018-08-19T09:11:57.569Z,3.10
2018-08-19T09:12:57.634Z,2.90
2018-08-19T09:13:57.765Z,2.80
2018-08-19T09:14:57.759Z,3.00
2018-08-19T09:15:57.823Z,2.90
2018-08-19T09:16:57.888Z,2.80
2018-08-19T09:17:57.950Z,2.80
2018-08-19T09:18:58.014Z,2.80
2018-08-19T09:19:58.095Z,2.90
2018-08-19T09:20:58.141Z,2.90
2018-08-19T09:21:58.727Z,2.80
2018-08-19T09:22:58.285Z,2.90
2018-08-19T09:23:58.332Z,2.90
2018-08-19T09:24:58.395Z,2.90
2018-08-19T09:25:58.459Z,2.40
2018-08-19T09:26:58.524Z,2.80
2018-08-19T09:27:58.596Z,2.60
2018-08-19T09:28:58.650Z,2.50
2018-08-19T09:29:58.741Z,2.30
2018-08-19T09:30:58.777Z,3.00
2018-08-19T09:31:58.840Z,2.80
2018-08-19T09:32:59.023Z,2.60
2018-08-19T09:33:58.969Z,2.30
2018-08-19T09:34:59.114Z,2.70
2018-08-19T09:35:59.104Z,2.70
2018-08-19T09:36:59.160Z,2.80
2018-08-19T09:37:59.225Z,2.60
2018-08-19T09:38:59.411Z,2.90
2018-08-19T09:39:59.418Z,2.80
2018-08-19T09:41:59.479Z,2.90
2018-08-19T09:42:59.585Z,2.80
2018-08-19T09:43:59.609Z,2.60
2018-08-19T09:46:02.427Z,2.50
2018-08-19T09:47:02.237Z,3.00
2018-08-19T09:48:02.521Z,3.00
2018-08-19T09:49:02.366Z,2.60
2018-08-19T09:50:02.431Z,2.60
2018-08-19T09:51:02.505Z,2.90
2018-08-19T09:52:02.556Z,2.60
2018-08-19T09:53:02.666Z,2.90
2018-08-19T09:54:02.737Z,2.40
2018-08-19T09:55:02.749Z,2.60
2018-08-19T09:56:02.816Z,2.70
2018-08-19T09:57:02.877Z,2.50
2018-08-19T09:58:02.943Z,2.80
2018-08-19T09:59:03.008Z,2.70
2018-08-19T10:00:03.079Z,2.70
2018-08-19T10:01:03.135Z,2.90
2018-08-19T10:02:03.202Z,2.60
2018-08-19T10:03:03.264Z,2.60
2018-08-19T10:04:03.328Z,3.10
2018-08-19T10:05:03.393Z,2.60
2018-08-19T10:06:03.837Z,2.60
2018-08-19T10:07:03.521Z,2.90
2018-08-19T10:08:03.586Z,2.50
2018-08-19T10:09:03.651Z,2.80
2018-08-19T10:10:03.715Z,2.90
2018-08-19T10:11:03.779Z,2.50
2018-08-19T10:12:03.845Z,3.00
2018-08-19T10:13:03.908Z,2.90
2018-08-19T10:14:03.973Z,2.80
2018-08-19T10:15:04.039Z,2.60
2018-08-19T10:16:04.102Z,2.70
2018-08-19T10:17:04.166Z,3.00
2018-08-19T10:18:04.231Z,2.90
2018-08-19T10:19:04.295Z,2.40
2018-08-19T10:20:04.360Z,2.50
2018-08-19T10:21:04.428Z,3.00
2018-08-19T10:22:04.489Z,2.70
2018-08-19T10:23:04.553Z,3.00
2018-08-19T10:24:04.617Z,2.60
2018-08-19T10:25:04.684Z,2.70
2018-08-19T10:26:04.764Z,2.60
2018-08-19T10:27:04.934Z,2.40
2018-08-19T10:28:04.878Z,2.50
2018-08-19T10:29:04.943Z,2.70
2018-08-19T10:30:05.008Z,2.60
2018-08-19T10:31:05.073Z,2.60
2018-08-19T10:32:09.571Z,2.30
2018-08-19T10:33:05.210Z,2.60
2018-08-19T10:34:05.280Z,2.60
2018-08-19T10:35:05.661Z,2.60
2018-08-19T10:36:05.473Z,2.40
2018-08-19T10:37:05.482Z,2.80
2018-08-19T10:38:05.537Z,2.50
2018-08-19T10:39:05.659Z,2.70
2018-08-19T10:40:05.670Z,2.90
2018-08-19T10:41:05.740Z,2.70
2018-08-19T10:42:05.808Z,2.60
2018-08-19T10:43:05.876Z,2.80
2018-08-19T10:44:05.944Z,2.80
2018-08-19T10:45:06.012Z,2.90
2018-08-19T10:46:06.083Z,2.80
2018-08-19T10:47:06.149Z,3.10
2018-08-19T10:48:06.219Z,2.80
2018-08-19T10:49:06.289Z,2.90
2018-08-19T10:50:06.358Z,3.30
2018-08-19T10:51:06.427Z,3.00
2018-08-19T10:52:06.497Z,2.80
2018-08-19T10:53:06.574Z,3.20
2018-08-19T10:54:06.639Z,3.40
2018-08-19T10:55:06.708Z,3.20
2018-08-19T10:56:06.778Z,3.00
2018-08-19T10:57:06.905Z,3.20
2018-08-19T10:58:06.919Z,2.80
2018-08-19T10:59:06.989Z,2.90
2018-08-19T11:00:07.061Z,2.80
2018-08-19T11:01:07.132Z,2.60
2018-08-19T11:02:07.203Z,2.80
2018-08-19T11:03:07.275Z,2.90
2018-08-19T11:04:07.346Z,3.00
2018-08-19T11:05:07.417Z,3.20
2018-08-19T11:06:07.489Z,3.20
2018-08-19T11:07:07.560Z,3.20
2018-08-19T11:08:07.631Z,2.50
2018-08-19T11:09:07.703Z,2.70
2018-08-19T11:10:07.775Z,3.10
2018-08-19T11:11:07.846Z,3.10
2018-08-19T11:12:07.921Z,3.00
2018-08-19T11:13:07.993Z,3.10
2018-08-19T11:14:08.061Z,3.10
2018-08-19T11:15:08.133Z,2.90
2018-08-19T11:16:08.204Z,3.20
2018-08-19T11:17:08.277Z,3.00
2018-08-19T11:18:08.349Z,3.10
2018-08-19T11:19:08.423Z,2.90
2018-08-19T11:20:08.492Z,3.10
2018-08-19T11:21:08.675Z,2.70
2018-08-19T11:22:08.636Z,3.10
2018-08-19T11:23:08.708Z,2.80
2018-08-19T11:24:08.781Z,2.80
2018-08-19T11:25:08.853Z,3.00
2018-08-19T11:26:08.924Z,3.10
2018-08-19T11:27:08.996Z,2.90
2018-08-19T11:28:09.067Z,2.80
2018-08-19T11:29:09.140Z,3.00
2018-08-19T11:30:09.212Z,2.90
2018-08-19T11:31:09.284Z,3.20
2018-08-19T11:32:09.362Z,2.90
2018-08-19T11:33:09.428Z,2.80
2018-08-19T11:34:09.652Z,3.10
2018-08-19T11:35:09.573Z,3.00
2018-08-19T11:36:09.643Z,3.00
2018-08-19T11:37:09.719Z,2.90
2018-08-19T11:38:09.789Z,3.00
2018-08-19T11:39:09.860Z,3.10
2018-08-19T11:40:09.932Z,2.90
2018-08-19T11:41:10.005Z,2.90
2018-08-19T11:42:10.076Z,2.60
2018-08-19T11:43:10.148Z,3.00
2018-08-19T11:44:10.219Z,3.00
2018-08-19T11:45:10.293Z,3.00
2018-08-19T11:46:10.364Z,2.90
2018-08-19T11:47:10.435Z,2.80
2018-08-19T11:48:10.507Z,2.90
2018-08-19T11:49:10.579Z,3.00
2018-08-19T11:50:10.652Z,2.50
2018-08-19T11:51:10.727Z,3.00
2018-08-19T11:52:10.795Z,3.10
2018-08-19T11:53:10.868Z,2.60
2018-08-19T11:54:10.949Z,2.70
2018-08-19T11:55:11.012Z,2.90
2018-08-19T11:56:11.083Z,3.00
2018-08-19T11:57:11.155Z,2.80
2018-08-19T11:58:11.228Z,2.60
2018-08-19T11:59:11.299Z,2.70
2018-08-19T12:00:11.370Z,2.70
2018-08-19T12:01:11.443Z,2.60
2018-08-19T12:02:11.544Z,2.90
2018-08-19T12:03:11.585Z,2.80
2018-08-19T12:04:11.658Z,3.00
2018-08-19T12:05:11.731Z,2.80
2018-08-19T12:06:11.803Z,2.60
2018-08-19T12:07:11.873Z,2.90
2018-08-19T12:08:11.945Z,2.80
2018-08-19T12:09:12.020Z,2.90
2018-08-19T12:10:12.093Z,3.00
2018-08-19T12:11:12.161Z,2.90
2018-08-19T12:12:12.233Z,2.80
2018-08-19T12:13:12.305Z,2.80
2018-08-19T12:14:12.380Z,2.90
2018-08-19T12:15:12.448Z,2.50
2018-08-19T12:16:12.520Z,3.20
2018-08-19T12:17:12.592Z,2.70
2018-08-19T12:18:12.668Z,2.80
2018-08-19T12:19:12.735Z,2.80
2018-08-19T12:20:12.809Z,2.70
2018-08-19T12:21:12.883Z,2.80
2018-08-19T12:22:12.954Z,2.80
2018-08-19T12:23:13.022Z,3.00
2018-08-19T12:24:13.095Z,2.80
2018-08-19T12:25:13.169Z,2.80
2018-08-19T12:26:13.239Z,2.90
2018-08-19T12:27:13.312Z,2.80
2018-08-19T12:28:13.382Z,2.80
2018-08-19T12:29:13.454Z,3.00
2018-08-19T12:30:13.525Z,3.10
2018-08-19T12:31:13.598Z,2.90
2018-08-19T12:32:13.669Z,2.70
2018-08-19T12:33:13.742Z,3.00
2018-08-19T12:34:14.066Z,3.00
2018-08-19T12:35:13.892Z,2.80
2018-08-19T12:36:13.957Z,2.60
2018-08-19T12:37:14.111Z,3.10
2018-08-19T12:38:14.106Z,3.00
2018-08-19T12:39:14.174Z,3.10
2018-08-19T12:40:14.247Z,3.10
2018-08-19T12:41:14.318Z,3.40
2018-08-19T12:42:14.393Z,3.00
2018-08-19T12:43:14.994Z,2.80
2018-08-19T12:44:14.535Z,3.00
2018-08-19T12:45:14.607Z,3.20
2018-08-19T12:46:14.682Z,2.70
2018-08-19T12:47:15.247Z,2.90
2018-08-19T12:48:14.823Z,3.10
2018-08-19T12:49:14.900Z,3.10
2018-08-19T12:50:15.425Z,2.80
2018-08-19T12:51:15.477Z,2.90
2018-08-19T12:52:15.113Z,3.10
2018-08-19T12:53:15.185Z,2.90
2018-08-19T12:54:15.257Z,3.10
2018-08-19T12:55:15.579Z,2.90
2018-08-19T12:56:15.402Z,3.40
2018-08-19T12:57:15.476Z,3.00
2018-08-19T12:58:15.551Z,3.20
2018-08-19T12:59:15.618Z,3.00
2018-08-19T13:00:15.942Z,2.60
2018-08-19T13:01:15.768Z,2.80
2018-08-19T13:02:15.834Z,2.70
2018-08-19T13:03:15.908Z,3.00
2018-08-19T13:04:15.980Z,3.00
2018-08-19T13:05:16.051Z,2.90
2018-08-19T13:06:16.125Z,3.10
2018-08-19T13:07:16.197Z,3.30
2018-08-19T13:08:16.650Z,3.00
2018-08-19T13:09:16.342Z,3.30
2018-08-19T13:10:16.417Z,3.10
2018-08-19T13:11:16.487Z,3.00
2018-08-19T13:12:16.559Z,2.90
2018-08-19T13:13:16.657Z,2.90
2018-08-19T13:14:16.707Z,3.10
2018-08-19T13:15:16.928Z,3.30
2018-08-19T13:16:16.851Z,3.20
2018-08-19T13:17:16.923Z,3.00
2018-08-19T13:18:17.001Z,3.00
2018-08-19T13:19:17.068Z,3.30
2018-08-19T13:20:17.142Z,2.80
2018-08-19T13:21:17.213Z,2.90
2018-08-19T13:22:17.286Z,3.20